Severn, Maryland
Current Conditions -  °F | °C
As of 12:54 PM on Thursday 27 Nov 2014 (Local Time) from KBWI Reporting Station
Broken Clouds Broken Clouds  
Wind Chill: 40°   Ceiling: 4500
Heat Index: 44°   Visibility: 10mi
Dew Point: 30°   Wind: 7mph
Humidity: 58%   Direction: 350°N
Pressure: 30.03"   Gusts: NA
Location:  39.14°N, 76.69°W
Report Text: KBWI 271754Z 35006KT 10SM SCT037 BKN045 BKN250 07/M01 A3003 RMK AO2 SLP168 T00671011 10072 20011 56009
Loading
Personal Weather Stations






























Interactive Weather Map New forecast layout! Learn more

10-Day Weather Forecast

Advertisements
Track Severe Weather on mobile